sensor_id;sensor_type;location;lat;lon;timestamp;P1;durP1;ratioP1;P2;durP2;ratioP2
59271;SDS011;45043;51.068;7.026;2023-09-18T00:02:56;6.23;;;4.63;;
59271;SDS011;45043;51.068;7.026;2023-09-18T00:05:57;7.47;;;5.00;;
59271;SDS011;45043;51.068;7.026;2023-09-18T00:08:59;8.20;;;4.80;;
59271;SDS011;45043;51.068;7.026;2023-09-18T00:11:59;8.40;;;4.60;;
59271;SDS011;45043;51.068;7.026;2023-09-18T00:15:01;7.33;;;4.87;;
59271;SDS011;45043;51.068;7.026;2023-09-18T00:18:02;11.10;;;4.83;;
59271;SDS011;45043;51.068;7.026;2023-09-18T00:21:03;11.23;;;5.20;;
59271;SDS011;45043;51.068;7.026;2023-09-18T00:24:04;8.97;;;4.57;;
59271;SDS011;45043;51.068;7.026;2023-09-18T00:27:06;7.57;;;4.63;;
59271;SDS011;45043;51.068;7.026;2023-09-18T00:30:07;6.73;;;4.90;;
59271;SDS011;45043;51.068;7.026;2023-09-18T00:33:08;9.23;;;4.93;;
59271;SDS011;45043;51.068;7.026;2023-09-18T00:36:10;8.20;;;4.83;;
59271;SDS011;45043;51.068;7.026;2023-09-18T00:39:11;9.20;;;5.30;;
59271;SDS011;45043;51.068;7.026;2023-09-18T00:42:12;7.33;;;4.23;;
59271;SDS011;45043;51.068;7.026;2023-09-18T00:45:14;8.77;;;4.53;;
59271;SDS011;45043;51.068;7.026;2023-09-18T00:48:15;7.17;;;4.53;;
59271;SDS011;45043;51.068;7.026;2023-09-18T00:51:17;8.07;;;4.93;;
59271;SDS011;45043;51.068;7.026;2023-09-18T00:54:19;9.13;;;5.00;;
59271;SDS011;45043;51.068;7.026;2023-09-18T00:57:20;8.80;;;5.07;;
59271;SDS011;45043;51.068;7.026;2023-09-18T01:00:21;8.63;;;5.17;;
59271;SDS011;45043;51.068;7.026;2023-09-18T01:03:23;10.17;;;4.87;;
59271;SDS011;45043;51.068;7.026;2023-09-18T01:06:31;7.83;;;4.87;;
59271;SDS011;45043;51.068;7.026;2023-09-18T01:09:32;9.30;;;5.37;;
59271;SDS011;45043;51.068;7.026;2023-09-18T01:12:48;9.20;;;4.57;;
59271;SDS011;45043;51.068;7.026;2023-09-18T01:15:58;8.17;;;5.47;;
59271;SDS011;45043;51.068;7.026;2023-09-18T01:19:04;8.37;;;4.80;;
59271;SDS011;45043;51.068;7.026;2023-09-18T01:22:05;7.80;;;5.00;;
59271;SDS011;45043;51.068;7.026;2023-09-18T01:25:07;10.67;;;4.87;;
59271;SDS011;45043;51.068;7.026;2023-09-18T01:28:08;9.70;;;4.90;;
59271;SDS011;45043;51.068;7.026;2023-09-18T01:31:10;10.13;;;5.17;;
59271;SDS011;45043;51.068;7.026;2023-09-18T01:34:11;8.43;;;4.97;;
59271;SDS011;45043;51.068;7.026;2023-09-18T01:37:13;7.03;;;4.93;;
59271;SDS011;45043;51.068;7.026;2023-09-18T01:40:17;6.73;;;4.47;;
59271;SDS011;45043;51.068;7.026;2023-09-18T01:43:19;8.80;;;4.43;;
59271;SDS011;45043;51.068;7.026;2023-09-18T01:46:19;8.47;;;4.40;;
59271;SDS011;45043;51.068;7.026;2023-09-18T01:49:28;7.10;;;4.90;;
59271;SDS011;45043;51.068;7.026;2023-09-18T01:52:30;7.73;;;4.87;;
59271;SDS011;45043;51.068;7.026;2023-09-18T01:55:31;6.93;;;4.70;;
59271;SDS011;45043;51.068;7.026;2023-09-18T01:58:33;7.07;;;4.50;;
59271;SDS011;45043;51.068;7.026;2023-09-18T02:01:34;7.17;;;4.27;;
59271;SDS011;45043;51.068;7.026;2023-09-18T02:04:35;9.23;;;4.20;;
59271;SDS011;45043;51.068;7.026;2023-09-18T02:07:37;6.33;;;4.60;;
59271;SDS011;45043;51.068;7.026;2023-09-18T02:10:37;6.10;;;4.17;;
59271;SDS011;45043;51.068;7.026;2023-09-18T02:13:38;8.33;;;4.40;;
59271;SDS011;45043;51.068;7.026;2023-09-18T02:16:40;8.60;;;4.37;;
59271;SDS011;45043;51.068;7.026;2023-09-18T02:19:41;9.83;;;4.47;;
59271;SDS011;45043;51.068;7.026;2023-09-18T02:22:43;7.30;;;4.17;;
59271;SDS011;45043;51.068;7.026;2023-09-18T02:25:54;8.23;;;4.60;;
59271;SDS011;45043;51.068;7.026;2023-09-18T02:29:00;8.07;;;4.63;;
59271;SDS011;45043;51.068;7.026;2023-09-18T02:32:04;5.70;;;3.90;;
59271;SDS011;45043;51.068;7.026;2023-09-18T02:35:05;7.87;;;4.23;;
59271;SDS011;45043;51.068;7.026;2023-09-18T02:38:07;7.20;;;4.07;;
59271;SDS011;45043;51.068;7.026;2023-09-18T02:41:08;9.87;;;4.50;;
59271;SDS011;45043;51.068;7.026;2023-09-18T02:44:09;8.13;;;4.50;;
59271;SDS011;45043;51.068;7.026;2023-09-18T02:47:10;6.67;;;4.30;;
59271;SDS011;45043;51.068;7.026;2023-09-18T02:50:11;9.10;;;4.17;;
59271;SDS011;45043;51.068;7.026;2023-09-18T02:53:20;9.67;;;4.00;;
59271;SDS011;45043;51.068;7.026;2023-09-18T02:56:23;6.97;;;4.80;;
59271;SDS011;45043;51.068;7.026;2023-09-18T02:59:24;10.37;;;4.37;;
59271;SDS011;45043;51.068;7.026;2023-09-18T03:02:27;8.27;;;5.03;;
59271;SDS011;45043;51.068;7.026;2023-09-18T03:05:28;6.70;;;5.13;;
59271;SDS011;45043;51.068;7.026;2023-09-18T03:08:32;7.67;;;4.90;;
59271;SDS011;45043;51.068;7.026;2023-09-18T03:11:34;7.83;;;4.73;;
59271;SDS011;45043;51.068;7.026;2023-09-18T03:14:35;9.17;;;4.70;;
59271;SDS011;45043;51.068;7.026;2023-09-18T03:17:36;7.53;;;4.63;;
59271;SDS011;45043;51.068;7.026;2023-09-18T03:20:37;9.97;;;5.10;;
59271;SDS011;45043;51.068;7.026;2023-09-18T03:23:42;6.83;;;4.80;;
59271;SDS011;45043;51.068;7.026;2023-09-18T03:26:43;9.93;;;4.90;;
59271;SDS011;45043;51.068;7.026;2023-09-18T03:29:44;9.97;;;5.23;;
59271;SDS011;45043;51.068;7.026;2023-09-18T03:32:45;7.30;;;4.80;;
59271;SDS011;45043;51.068;7.026;2023-09-18T03:35:49;6.90;;;5.33;;
59271;SDS011;45043;51.068;7.026;2023-09-18T03:38:56;7.77;;;4.83;;
59271;SDS011;45043;51.068;7.026;2023-09-18T03:41:57;9.53;;;5.00;;
59271;SDS011;45043;51.068;7.026;2023-09-18T03:44:57;8.20;;;4.63;;
59271;SDS011;45043;51.068;7.026;2023-09-18T03:47:59;9.93;;;5.27;;
59271;SDS011;45043;51.068;7.026;2023-09-18T03:51:00;9.57;;;6.10;;
59271;SDS011;45043;51.068;7.026;2023-09-18T03:54:01;9.93;;;5.50;;
59271;SDS011;45043;51.068;7.026;2023-09-18T03:57:01;10.37;;;5.37;;
59271;SDS011;45043;51.068;7.026;2023-09-18T04:00:03;6.73;;;5.70;;
59271;SDS011;45043;51.068;7.026;2023-09-18T04:03:12;9.83;;;5.47;;
59271;SDS011;45043;51.068;7.026;2023-09-18T04:06:13;9.13;;;5.50;;
59271;SDS011;45043;51.068;7.026;2023-09-18T04:09:14;11.60;;;5.30;;
59271;SDS011;45043;51.068;7.026;2023-09-18T04:12:16;9.90;;;5.57;;
59271;SDS011;45043;51.068;7.026;2023-09-18T04:15:17;9.20;;;5.73;;
59271;SDS011;45043;51.068;7.026;2023-09-18T04:18:20;9.47;;;5.57;;
59271;SDS011;45043;51.068;7.026;2023-09-18T04:21:21;11.23;;;5.53;;
59271;SDS011;45043;51.068;7.026;2023-09-18T04:24:22;10.33;;;5.73;;
59271;SDS011;45043;51.068;7.026;2023-09-18T04:27:23;10.73;;;5.73;;
59271;SDS011;45043;51.068;7.026;2023-09-18T04:30:25;11.03;;;6.00;;
59271;SDS011;45043;51.068;7.026;2023-09-18T04:33:26;9.77;;;5.50;;
59271;SDS011;45043;51.068;7.026;2023-09-18T04:36:29;9.03;;;5.23;;
59271;SDS011;45043;51.068;7.026;2023-09-18T04:39:30;9.33;;;5.70;;
59271;SDS011;45043;51.068;7.026;2023-09-18T04:42:34;11.00;;;5.60;;
59271;SDS011;45043;51.068;7.026;2023-09-18T04:45:35;11.83;;;5.90;;
59271;SDS011;45043;51.068;7.026;2023-09-18T04:48:36;9.43;;;5.60;;
59271;SDS011;45043;51.068;7.026;2023-09-18T04:51:39;10.63;;;5.97;;
59271;SDS011;45043;51.068;7.026;2023-09-18T04:54:40;9.37;;;5.17;;
59271;SDS011;45043;51.068;7.026;2023-09-18T04:57:41;10.53;;;5.23;;
59271;SDS011;45043;51.068;7.026;2023-09-18T05:00:42;9.50;;;5.10;;
59271;SDS011;45043;51.068;7.026;2023-09-18T05:03:44;7.47;;;5.00;;
59271;SDS011;45043;51.068;7.026;2023-09-18T05:06:45;10.97;;;4.80;;
59271;SDS011;45043;51.068;7.026;2023-09-18T05:09:46;9.03;;;5.10;;
59271;SDS011;45043;51.068;7.026;2023-09-18T05:12:48;12.20;;;5.17;;
59271;SDS011;45043;51.068;7.026;2023-09-18T05:15:49;10.20;;;4.57;;
59271;SDS011;45043;51.068;7.026;2023-09-18T05:18:51;10.67;;;4.70;;
59271;SDS011;45043;51.068;7.026;2023-09-18T05:21:52;12.83;;;5.60;;
59271;SDS011;45043;51.068;7.026;2023-09-18T05:24:53;12.53;;;4.80;;
59271;SDS011;45043;51.068;7.026;2023-09-18T05:27:54;10.13;;;4.97;;
59271;SDS011;45043;51.068;7.026;2023-09-18T05:30:57;8.87;;;4.97;;
59271;SDS011;45043;51.068;7.026;2023-09-18T05:33:59;10.43;;;4.53;;
59271;SDS011;45043;51.068;7.026;2023-09-18T05:37:00;9.03;;;4.77;;
59271;SDS011;45043;51.068;7.026;2023-09-18T05:40:01;10.97;;;4.63;;
59271;SDS011;45043;51.068;7.026;2023-09-18T05:43:04;10.53;;;5.20;;
59271;SDS011;45043;51.068;7.026;2023-09-18T05:46:06;10.83;;;4.87;;
59271;SDS011;45043;51.068;7.026;2023-09-18T05:49:07;11.73;;;4.70;;
59271;SDS011;45043;51.068;7.026;2023-09-18T05:52:08;12.43;;;4.80;;
59271;SDS011;45043;51.068;7.026;2023-09-18T05:55:09;10.27;;;4.90;;
59271;SDS011;45043;51.068;7.026;2023-09-18T05:58:11;9.50;;;5.27;;
59271;SDS011;45043;51.068;7.026;2023-09-18T06:01:12;9.87;;;5.03;;
59271;SDS011;45043;51.068;7.026;2023-09-18T06:04:13;11.70;;;5.07;;
59271;SDS011;45043;51.068;7.026;2023-09-18T06:07:14;10.83;;;5.00;;
59271;SDS011;45043;51.068;7.026;2023-09-18T06:10:15;10.47;;;4.70;;
59271;SDS011;45043;51.068;7.026;2023-09-18T06:13:18;9.63;;;4.60;;
59271;SDS011;45043;51.068;7.026;2023-09-18T06:16:19;12.67;;;4.57;;
59271;SDS011;45043;51.068;7.026;2023-09-18T06:19:20;12.07;;;4.40;;
59271;SDS011;45043;51.068;7.026;2023-09-18T06:22:22;6.80;;;4.00;;
59271;SDS011;45043;51.068;7.026;2023-09-18T06:25:23;8.73;;;4.37;;
59271;SDS011;45043;51.068;7.026;2023-09-18T06:28:28;8.07;;;4.30;;
59271;SDS011;45043;51.068;7.026;2023-09-18T06:31:30;9.37;;;4.30;;
59271;SDS011;45043;51.068;7.026;2023-09-18T06:34:31;8.77;;;4.53;;
59271;SDS011;45043;51.068;7.026;2023-09-18T06:37:32;9.17;;;4.40;;
59271;SDS011;45043;51.068;7.026;2023-09-18T06:40:33;8.93;;;4.20;;
59271;SDS011;45043;51.068;7.026;2023-09-18T06:43:33;9.47;;;3.97;;
59271;SDS011;45043;51.068;7.026;2023-09-18T06:46:34;9.83;;;4.37;;
59271;SDS011;45043;51.068;7.026;2023-09-18T06:49:36;7.83;;;4.23;;
59271;SDS011;45043;51.068;7.026;2023-09-18T06:52:37;11.53;;;4.90;;
59271;SDS011;45043;51.068;7.026;2023-09-18T06:55:39;8.27;;;4.10;;
59271;SDS011;45043;51.068;7.026;2023-09-18T06:58:40;8.70;;;3.80;;
59271;SDS011;45043;51.068;7.026;2023-09-18T07:01:41;6.97;;;3.60;;
59271;SDS011;45043;51.068;7.026;2023-09-18T07:04:42;9.07;;;3.83;;
59271;SDS011;45043;51.068;7.026;2023-09-18T07:07:46;7.47;;;4.10;;
59271;SDS011;45043;51.068;7.026;2023-09-18T07:10:48;8.43;;;3.63;;
59271;SDS011;45043;51.068;7.026;2023-09-18T07:13:51;9.13;;;3.57;;
59271;SDS011;45043;51.068;7.026;2023-09-18T07:16:52;7.00;;;3.27;;
59271;SDS011;45043;51.068;7.026;2023-09-18T07:19:53;6.43;;;3.33;;
59271;SDS011;45043;51.068;7.026;2023-09-18T07:22:54;8.30;;;3.73;;
59271;SDS011;45043;51.068;7.026;2023-09-18T07:25:55;6.37;;;3.27;;
59271;SDS011;45043;51.068;7.026;2023-09-18T07:28:58;8.60;;;3.83;;
59271;SDS011;45043;51.068;7.026;2023-09-18T07:32:01;5.47;;;3.00;;
59271;SDS011;45043;51.068;7.026;2023-09-18T07:35:02;6.40;;;3.17;;
59271;SDS011;45043;51.068;7.026;2023-09-18T07:38:07;6.07;;;2.77;;
59271;SDS011;45043;51.068;7.026;2023-09-18T07:41:08;6.07;;;3.37;;
59271;SDS011;45043;51.068;7.026;2023-09-18T07:44:09;5.93;;;2.60;;
59271;SDS011;45043;51.068;7.026;2023-09-18T07:47:11;7.27;;;3.00;;
59271;SDS011;45043;51.068;7.026;2023-09-18T07:50:15;10.73;;;6.27;;
59271;SDS011;45043;51.068;7.026;2023-09-18T07:53:17;7.20;;;4.00;;
59271;SDS011;45043;51.068;7.026;2023-09-18T07:56:18;7.60;;;3.93;;
59271;SDS011;45043;51.068;7.026;2023-09-18T07:59:19;6.13;;;3.40;;
59271;SDS011;45043;51.068;7.026;2023-09-18T08:02:20;4.73;;;2.90;;
59271;SDS011;45043;51.068;7.026;2023-09-18T08:05:22;6.90;;;3.20;;
59271;SDS011;45043;51.068;7.026;2023-09-18T08:08:23;7.73;;;3.23;;
59271;SDS011;45043;51.068;7.026;2023-09-18T08:11:24;7.50;;;3.17;;
59271;SDS011;45043;51.068;7.026;2023-09-18T08:14:26;4.37;;;2.50;;
59271;SDS011;45043;51.068;7.026;2023-09-18T08:17:27;6.57;;;2.50;;
59271;SDS011;45043;51.068;7.026;2023-09-18T08:20:28;3.77;;;2.33;;
59271;SDS011;45043;51.068;7.026;2023-09-18T08:23:29;6.13;;;2.33;;
59271;SDS011;45043;51.068;7.026;2023-09-18T08:26:30;6.70;;;2.57;;
59271;SDS011;45043;51.068;7.026;2023-09-18T08:29:31;4.63;;;2.63;;
59271;SDS011;45043;51.068;7.026;2023-09-18T08:32:32;2.57;;;2.20;;
59271;SDS011;45043;51.068;7.026;2023-09-18T08:35:34;9.23;;;3.53;;
59271;SDS011;45043;51.068;7.026;2023-09-18T08:38:35;3.40;;;2.47;;
59271;SDS011;45043;51.068;7.026;2023-09-18T08:41:37;5.00;;;2.63;;
59271;SDS011;45043;51.068;7.026;2023-09-18T08:44:42;4.03;;;2.23;;
59271;SDS011;45043;51.068;7.026;2023-09-18T08:47:47;4.77;;;2.37;;
59271;SDS011;45043;51.068;7.026;2023-09-18T08:50:48;4.40;;;2.50;;
59271;SDS011;45043;51.068;7.026;2023-09-18T08:53:51;3.87;;;2.53;;
59271;SDS011;45043;51.068;7.026;2023-09-18T08:56:55;5.67;;;2.80;;
59271;SDS011;45043;51.068;7.026;2023-09-18T08:59:55;4.50;;;2.80;;
59271;SDS011;45043;51.068;7.026;2023-09-18T09:02:58;5.17;;;2.87;;
59271;SDS011;45043;51.068;7.026;2023-09-18T09:05:59;7.07;;;3.20;;
59271;SDS011;45043;51.068;7.026;2023-09-18T09:09:01;4.53;;;2.70;;
59271;SDS011;45043;51.068;7.026;2023-09-18T09:12:03;4.07;;;2.30;;
59271;SDS011;45043;51.068;7.026;2023-09-18T09:15:04;5.67;;;2.47;;
59271;SDS011;45043;51.068;7.026;2023-09-18T09:18:07;5.63;;;2.30;;
59271;SDS011;45043;51.068;7.026;2023-09-18T09:21:09;4.00;;;2.30;;
59271;SDS011;45043;51.068;7.026;2023-09-18T09:24:12;5.13;;;2.50;;
59271;SDS011;45043;51.068;7.026;2023-09-18T09:27:13;5.27;;;2.10;;
59271;SDS011;45043;51.068;7.026;2023-09-18T09:30:20;3.37;;;1.93;;
59271;SDS011;45043;51.068;7.026;2023-09-18T09:33:24;5.03;;;2.20;;
59271;SDS011;45043;51.068;7.026;2023-09-18T09:36:25;2.50;;;2.10;;
59271;SDS011;45043;51.068;7.026;2023-09-18T09:39:27;4.77;;;1.97;;
59271;SDS011;45043;51.068;7.026;2023-09-18T09:42:28;5.33;;;2.57;;
59271;SDS011;45043;51.068;7.026;2023-09-18T09:45:40;4.33;;;2.43;;
59271;SDS011;45043;51.068;7.026;2023-09-18T09:49:01;4.27;;;2.47;;
59271;SDS011;45043;51.068;7.026;2023-09-18T09:52:03;4.63;;;2.10;;
59271;SDS011;45043;51.068;7.026;2023-09-18T09:55:29;6.27;;;2.50;;
59271;SDS011;45043;51.068;7.026;2023-09-18T09:58:32;3.90;;;1.93;;
59271;SDS011;45043;51.068;7.026;2023-09-18T10:01:33;3.37;;;2.20;;
59271;SDS011;45043;51.068;7.026;2023-09-18T10:04:35;2.90;;;1.97;;
59271;SDS011;45043;51.068;7.026;2023-09-18T10:07:37;6.60;;;2.00;;
59271;SDS011;45043;51.068;7.026;2023-09-18T10:10:40;3.50;;;1.97;;
59271;SDS011;45043;51.068;7.026;2023-09-18T10:13:47;2.63;;;2.00;;
59271;SDS011;45043;51.068;7.026;2023-09-18T10:16:53;6.80;;;2.77;;
59271;SDS011;45043;51.068;7.026;2023-09-18T10:20:00;3.27;;;2.13;;
59271;SDS011;45043;51.068;7.026;2023-09-18T10:23:12;3.17;;;2.40;;
59271;SDS011;45043;51.068;7.026;2023-09-18T10:26:24;3.40;;;2.20;;
59271;SDS011;45043;51.068;7.026;2023-09-18T10:29:29;2.57;;;2.07;;
59271;SDS011;45043;51.068;7.026;2023-09-18T10:32:32;3.90;;;2.00;;
59271;SDS011;45043;51.068;7.026;2023-09-18T10:35:34;3.00;;;2.00;;
59271;SDS011;45043;51.068;7.026;2023-09-18T10:38:36;5.10;;;2.20;;
59271;SDS011;45043;51.068;7.026;2023-09-18T10:41:39;3.63;;;2.20;;
59271;SDS011;45043;51.068;7.026;2023-09-18T10:44:41;3.57;;;2.03;;
59271;SDS011;45043;51.068;7.026;2023-09-18T10:47:43;3.97;;;2.20;;
59271;SDS011;45043;51.068;7.026;2023-09-18T10:50:47;3.80;;;1.90;;
59271;SDS011;45043;51.068;7.026;2023-09-18T10:53:48;3.97;;;1.80;;
59271;SDS011;45043;51.068;7.026;2023-09-18T10:56:50;2.27;;;1.93;;
59271;SDS011;45043;51.068;7.026;2023-09-18T10:59:54;3.27;;;1.87;;
59271;SDS011;45043;51.068;7.026;2023-09-18T11:03:14;3.80;;;1.90;;
59271;SDS011;45043;51.068;7.026;2023-09-18T11:06:19;3.53;;;1.90;;
59271;SDS011;45043;51.068;7.026;2023-09-18T11:09:22;2.57;;;1.87;;
59271;SDS011;45043;51.068;7.026;2023-09-18T11:12:43;5.53;;;2.30;;
59271;SDS011;45043;51.068;7.026;2023-09-18T11:15:45;3.03;;;2.10;;
59271;SDS011;45043;51.068;7.026;2023-09-18T11:18:47;2.47;;;1.70;;
59271;SDS011;45043;51.068;7.026;2023-09-18T11:21:51;3.57;;;1.90;;
59271;SDS011;45043;51.068;7.026;2023-09-18T11:28:30;4.33;;;2.27;;
59271;SDS011;45043;51.068;7.026;2023-09-18T11:35:06;3.37;;;1.80;;
59271;SDS011;45043;51.068;7.026;2023-09-18T11:38:08;5.30;;;1.90;;
59271;SDS011;45043;51.068;7.026;2023-09-18T11:41:23;2.00;;;1.80;;
59271;SDS011;45043;51.068;7.026;2023-09-18T11:47:30;3.60;;;1.87;;
59271;SDS011;45043;51.068;7.026;2023-09-18T11:50:33;3.90;;;2.07;;
59271;SDS011;45043;51.068;7.026;2023-09-18T11:53:36;4.73;;;2.10;;
59271;SDS011;45043;51.068;7.026;2023-09-18T11:56:41;2.83;;;2.00;;
59271;SDS011;45043;51.068;7.026;2023-09-18T11:59:42;2.73;;;2.03;;
59271;SDS011;45043;51.068;7.026;2023-09-18T12:02:44;3.30;;;2.10;;
59271;SDS011;45043;51.068;7.026;2023-09-18T12:05:47;2.23;;;1.93;;
59271;SDS011;45043;51.068;7.026;2023-09-18T12:08:51;2.07;;;1.87;;
59271;SDS011;45043;51.068;7.026;2023-09-18T12:11:53;2.90;;;1.90;;
59271;SDS011;45043;51.068;7.026;2023-09-18T12:14:58;4.27;;;2.47;;
59271;SDS011;45043;51.068;7.026;2023-09-18T12:18:06;3.80;;;2.00;;
59271;SDS011;45043;51.068;7.026;2023-09-18T12:21:08;3.40;;;1.70;;
59271;SDS011;45043;51.068;7.026;2023-09-18T12:24:20;3.90;;;2.03;;
59271;SDS011;45043;51.068;7.026;2023-09-18T12:27:25;3.87;;;2.10;;
59271;SDS011;45043;51.068;7.026;2023-09-18T12:30:27;3.20;;;2.17;;
59271;SDS011;45043;51.068;7.026;2023-09-18T12:33:29;2.53;;;1.70;;
59271;SDS011;45043;51.068;7.026;2023-09-18T12:36:34;2.50;;;1.87;;
59271;SDS011;45043;51.068;7.026;2023-09-18T12:39:35;3.10;;;2.00;;
59271;SDS011;45043;51.068;7.026;2023-09-18T12:42:37;3.30;;;2.10;;
59271;SDS011;45043;51.068;7.026;2023-09-18T12:45:41;3.83;;;2.07;;
59271;SDS011;45043;51.068;7.026;2023-09-18T12:48:44;3.90;;;2.10;;
59271;SDS011;45043;51.068;7.026;2023-09-18T12:52:01;2.30;;;2.10;;
59271;SDS011;45043;51.068;7.026;2023-09-18T12:55:07;4.73;;;2.00;;
59271;SDS011;45043;51.068;7.026;2023-09-18T12:58:12;2.30;;;1.93;;
59271;SDS011;45043;51.068;7.026;2023-09-18T13:01:15;4.80;;;2.10;;
59271;SDS011;45043;51.068;7.026;2023-09-18T13:04:17;3.33;;;1.87;;
59271;SDS011;45043;51.068;7.026;2023-09-18T13:07:19;3.23;;;1.77;;
59271;SDS011;45043;51.068;7.026;2023-09-18T13:10:20;2.60;;;2.17;;
59271;SDS011;45043;51.068;7.026;2023-09-18T13:13:22;3.63;;;1.97;;
59271;SDS011;45043;51.068;7.026;2023-09-18T13:16:24;2.40;;;2.10;;
59271;SDS011;45043;51.068;7.026;2023-09-18T13:19:25;2.93;;;2.30;;
59271;SDS011;45043;51.068;7.026;2023-09-18T13:22:26;5.00;;;2.33;;
59271;SDS011;45043;51.068;7.026;2023-09-18T13:25:49;3.20;;;2.00;;
59271;SDS011;45043;51.068;7.026;2023-09-18T13:28:49;4.20;;;1.70;;
59271;SDS011;45043;51.068;7.026;2023-09-18T13:31:51;4.07;;;2.17;;
59271;SDS011;45043;51.068;7.026;2023-09-18T13:34:52;2.60;;;1.80;;
59271;SDS011;45043;51.068;7.026;2023-09-18T13:37:53;1.87;;;1.73;;
59271;SDS011;45043;51.068;7.026;2023-09-18T13:40:55;2.43;;;2.20;;
59271;SDS011;45043;51.068;7.026;2023-09-18T13:43:57;3.33;;;2.23;;
59271;SDS011;45043;51.068;7.026;2023-09-18T13:46:59;5.07;;;2.43;;
59271;SDS011;45043;51.068;7.026;2023-09-18T13:50:06;2.97;;;2.20;;
59271;SDS011;45043;51.068;7.026;2023-09-18T13:53:07;3.47;;;2.45;;
59271;SDS011;45043;51.068;7.026;2023-09-18T13:56:09;2.00;;;1.85;;
59271;SDS011;45043;51.068;7.026;2023-09-18T13:59:09;2.03;;;1.77;;
59271;SDS011;45043;51.068;7.026;2023-09-18T14:02:13;2.67;;;1.80;;
59271;SDS011;45043;51.068;7.026;2023-09-18T14:05:16;4.25;;;1.95;;
59271;SDS011;45043;51.068;7.026;2023-09-18T14:08:18;2.97;;;2.10;;
59271;SDS011;45043;51.068;7.026;2023-09-18T14:11:19;2.38;;;2.00;;
59271;SDS011;45043;51.068;7.026;2023-09-18T14:14:22;2.25;;;1.80;;
59271;SDS011;45043;51.068;7.026;2023-09-18T14:17:22;3.15;;;1.90;;
59271;SDS011;45043;51.068;7.026;2023-09-18T14:20:23;3.85;;;1.95;;
59271;SDS011;45043;51.068;7.026;2023-09-18T14:23:24;2.33;;;1.90;;
59271;SDS011;45043;51.068;7.026;2023-09-18T14:26:27;3.10;;;2.10;;
59271;SDS011;45043;51.068;7.026;2023-09-18T14:29:28;2.00;;;1.47;;
59271;SDS011;45043;51.068;7.026;2023-09-18T14:32:30;2.80;;;2.03;;
59271;SDS011;45043;51.068;7.026;2023-09-18T14:35:31;2.13;;;2.03;;
59271;SDS011;45043;51.068;7.026;2023-09-18T14:38:32;3.40;;;1.83;;
59271;SDS011;45043;51.068;7.026;2023-09-18T14:41:33;3.40;;;2.28;;
59271;SDS011;45043;51.068;7.026;2023-09-18T14:44:35;3.65;;;2.10;;
59271;SDS011;45043;51.068;7.026;2023-09-18T14:47:36;4.50;;;2.10;;
59271;SDS011;45043;51.068;7.026;2023-09-18T14:50:39;2.50;;;2.03;;
59271;SDS011;45043;51.068;7.026;2023-09-18T14:53:39;2.40;;;2.00;;
59271;SDS011;45043;51.068;7.026;2023-09-18T14:56:40;3.88;;;2.15;;
59271;SDS011;45043;51.068;7.026;2023-09-18T14:59:41;3.53;;;3.33;;
59271;SDS011;45043;51.068;7.026;2023-09-18T15:03:06;6.15;;;2.63;;
59271;SDS011;45043;51.068;7.026;2023-09-18T15:06:08;4.70;;;4.40;;
59271;SDS011;45043;51.068;7.026;2023-09-18T15:09:09;6.10;;;5.63;;
59271;SDS011;45043;51.068;7.026;2023-09-18T15:12:10;5.22;;;4.93;;
59271;SDS011;45043;51.068;7.026;2023-09-18T15:15:12;2.83;;;2.03;;
59271;SDS011;45043;51.068;7.026;2023-09-18T15:18:13;7.20;;;6.68;;
59271;SDS011;45043;51.068;7.026;2023-09-18T15:21:14;6.15;;;5.65;;
59271;SDS011;45043;51.068;7.026;2023-09-18T15:24:16;5.43;;;5.03;;
59271;SDS011;45043;51.068;7.026;2023-09-18T15:27:18;7.47;;;6.97;;
59271;SDS011;45043;51.068;7.026;2023-09-18T15:30:19;5.97;;;4.80;;
59271;SDS011;45043;51.068;7.026;2023-09-18T15:33:21;7.50;;;6.95;;
59271;SDS011;45043;51.068;7.026;2023-09-18T15:36:25;5.72;;;5.32;;
59271;SDS011;45043;51.068;7.026;2023-09-18T15:39:26;6.90;;;6.40;;
59271;SDS011;45043;51.068;7.026;2023-09-18T15:42:28;5.40;;;5.10;;
59271;SDS011;45043;51.068;7.026;2023-09-18T15:45:29;5.93;;;5.53;;
59271;SDS011;45043;51.068;7.026;2023-09-18T15:48:30;3.70;;;3.40;;
59271;SDS011;45043;51.068;7.026;2023-09-18T15:51:31;2.33;;;2.13;;
59271;SDS011;45043;51.068;7.026;2023-09-18T15:54:32;3.55;;;2.15;;
59271;SDS011;45043;51.068;7.026;2023-09-18T15:57:34;2.15;;;1.92;;
59271;SDS011;45043;51.068;7.026;2023-09-18T16:00:37;3.03;;;2.53;;
59271;SDS011;45043;51.068;7.026;2023-09-18T16:03:38;3.33;;;2.22;;
59271;SDS011;45043;51.068;7.026;2023-09-18T16:06:47;2.20;;;2.00;;
59271;SDS011;45043;51.068;7.026;2023-09-18T16:09:49;3.05;;;1.98;;
59271;SDS011;45043;51.068;7.026;2023-09-18T16:12:50;3.27;;;1.90;;
59271;SDS011;45043;51.068;7.026;2023-09-18T16:15:51;3.45;;;2.33;;
59271;SDS011;45043;51.068;7.026;2023-09-18T16:18:52;3.50;;;2.08;;
59271;SDS011;45043;51.068;7.026;2023-09-18T16:21:57;2.77;;;2.20;;
59271;SDS011;45043;51.068;7.026;2023-09-18T16:24:58;3.00;;;2.30;;
59271;SDS011;45043;51.068;7.026;2023-09-18T16:28:02;5.73;;;2.10;;
59271;SDS011;45043;51.068;7.026;2023-09-18T16:31:05;3.27;;;2.13;;
59271;SDS011;45043;51.068;7.026;2023-09-18T16:34:09;4.50;;;2.00;;
59271;SDS011;45043;51.068;7.026;2023-09-18T16:37:09;3.27;;;2.00;;
59271;SDS011;45043;51.068;7.026;2023-09-18T16:40:10;3.03;;;2.27;;
59271;SDS011;45043;51.068;7.026;2023-09-18T16:43:12;2.80;;;2.07;;
59271;SDS011;45043;51.068;7.026;2023-09-18T16:46:13;5.83;;;2.10;;
59271;SDS011;45043;51.068;7.026;2023-09-18T16:49:14;3.93;;;2.40;;
59271;SDS011;45043;51.068;7.026;2023-09-18T16:52:22;3.07;;;2.17;;
59271;SDS011;45043;51.068;7.026;2023-09-18T16:55:23;3.27;;;2.30;;
59271;SDS011;45043;51.068;7.026;2023-09-18T16:58:25;2.87;;;2.37;;
59271;SDS011;45043;51.068;7.026;2023-09-18T17:01:26;2.10;;;1.90;;
59271;SDS011;45043;51.068;7.026;2023-09-18T17:04:27;3.20;;;2.43;;
59271;SDS011;45043;51.068;7.026;2023-09-18T17:07:28;2.90;;;2.10;;
59271;SDS011;45043;51.068;7.026;2023-09-18T17:10:30;4.73;;;2.43;;
59271;SDS011;45043;51.068;7.026;2023-09-18T17:13:31;5.10;;;2.77;;
59271;SDS011;45043;51.068;7.026;2023-09-18T17:16:32;3.83;;;2.60;;
59271;SDS011;45043;51.068;7.026;2023-09-18T17:19:36;2.37;;;2.07;;
59271;SDS011;45043;51.068;7.026;2023-09-18T17:22:38;4.33;;;2.20;;
59271;SDS011;45043;51.068;7.026;2023-09-18T17:25:38;3.60;;;1.90;;
59271;SDS011;45043;51.068;7.026;2023-09-18T17:28:39;3.27;;;2.17;;
59271;SDS011;45043;51.068;7.026;2023-09-18T17:31:41;5.90;;;2.07;;
59271;SDS011;45043;51.068;7.026;2023-09-18T17:34:43;2.93;;;2.13;;
59271;SDS011;45043;51.068;7.026;2023-09-18T17:37:47;2.53;;;1.90;;
59271;SDS011;45043;51.068;7.026;2023-09-18T17:40:48;2.70;;;2.00;;
59271;SDS011;45043;51.068;7.026;2023-09-18T17:43:49;3.03;;;2.20;;
59271;SDS011;45043;51.068;7.026;2023-09-18T17:46:50;4.33;;;2.20;;
59271;SDS011;45043;51.068;7.026;2023-09-18T17:49:51;2.40;;;2.13;;
59271;SDS011;45043;51.068;7.026;2023-09-18T17:52:52;6.80;;;2.40;;
59271;SDS011;45043;51.068;7.026;2023-09-18T17:55:53;4.03;;;2.67;;
59271;SDS011;45043;51.068;7.026;2023-09-18T17:58:55;5.90;;;2.63;;
59271;SDS011;45043;51.068;7.026;2023-09-18T18:01:56;2.57;;;2.37;;
59271;SDS011;45043;51.068;7.026;2023-09-18T18:04:57;3.33;;;2.53;;
59271;SDS011;45043;51.068;7.026;2023-09-18T18:07:59;3.67;;;2.50;;
59271;SDS011;45043;51.068;7.026;2023-09-18T18:11:01;4.27;;;2.47;;
59271;SDS011;45043;51.068;7.026;2023-09-18T18:14:04;7.13;;;2.20;;
59271;SDS011;45043;51.068;7.026;2023-09-18T18:17:05;7.33;;;2.10;;
59271;SDS011;45043;51.068;7.026;2023-09-18T18:20:10;6.07;;;1.80;;
59271;SDS011;45043;51.068;7.026;2023-09-18T18:23:13;3.97;;;2.30;;
59271;SDS011;45043;51.068;7.026;2023-09-18T18:26:18;5.93;;;2.50;;
59271;SDS011;45043;51.068;7.026;2023-09-18T18:29:24;4.03;;;1.97;;